Latest Coastal Weather Observations for Strahan

IDT60701

Issued at 8:55 pm EDT Sunday 23 November 2014 (issued every 10 minutes, with the page automatically refreshed every 10 minutes)

About coastal observations | Map of coastal stations | Coastal observations for TAS | Marine services | Other Formats
Station Details ID: 097072 Name: STRAHAN AERODROME Lat: -42.16 Lon: 145.29 Height: 21.0 m
Data from the previous 72 hours. | See also: Recent months at Strahan
Date/Time
EDT
Temp

°C
Wind Pressure Rain
since 9am
mm
Weather Cloud Vis
km
Sea
Height
m
Swell
Dir
 
Speed
knots
Gust
knots
hPa Trend Height
m
Period
s
Dir
23/08:30pm 12.3 NNW 9 11 1012.7 - 0.0 - Partly cloudy 10 - - - -
23/08:00pm 12.7 NNW 8 10 1012.2 - 0.0 - Cloudy 10 - - - -
23/07:30pm 12.8 NNW 8 13 1012.4 - 0.0 - Cloudy 10 - - - -
23/07:00pm 13.0 NW 11 14 1012.3 - 0.0 - Cloudy 10 - - - -
23/06:30pm 13.5 NW 11 15 1012.1 - 0.0 - Cloudy 10 - - - -
23/06:00pm 13.8 NW 11 14 1011.9 - 0.0 - Mostly cloudy 10 - - - -
23/05:30pm 15.0 NW 12 15 1011.6 - 0.0 - Partly cloudy 10 - - - -
23/05:00pm 15.4 NW 12 15 1011.3 - 0.0 - - 10 - - - -
23/04:30pm 14.7 NW 11 16 1011.2 - 0.0 - - 10 - - - -
23/04:00pm 14.9 NNW 11 14 1011.1 - 0.0 - - 10 - - - -
23/03:30pm 15.4 NW 11 15 1011.3 - 0.0 - - 10 - - - -
23/03:00pm 15.6 NW 13 17 1011.4 - 0.0 - - 10 - - - -
23/02:30pm 15.2 NNW 12 18 1011.3 - 0.0 - - 10 - - - -
23/02:00pm 15.1 WNW 14 17 1011.5 - 0.0 - - 10 - - - -
23/01:30pm 15.9 NNW 13 18 1011.5 - 0.0 - Partly cloudy 10 - - - -
23/01:00pm 14.8 NW 13 18 1011.6 - 0.0 - Partly cloudy 10 - - - -
23/12:30pm 14.5 NW 14 19 1011.7 - 0.0 - Partly cloudy 10 - - - -
23/12:00pm 14.8 NW 14 17 1011.5 - 0.0 - - 10 - - - -
23/11:30am 15.0 NW 14 18 1011.6 - 0.0 - Partly cloudy 10 - - - -
23/11:00am 14.3 NW 15 19 1011.5 - 0.0 - Partly cloudy 10 - - - -
23/10:30am 14.3 NW 13 17 1011.3 - 0.0 - Partly cloudy 10 - - - -
23/10:00am 14.4 NNW 12 17 1011.2 - 0.0 - Partly cloudy 10 - - - -
23/09:30am 13.5 NW 12 15 1011.1 - 0.0 - Partly cloudy 10 - - - -
23/09:00am 12.4 NW 12 15 1010.7 - 1.2 - Cloudy 10 - - - -
23/08:30am 12.0 NW 11 14 1010.2 - 1.2 - Partly cloudy 10 - - - -
23/08:00am 11.4 WNW 9 12 1009.9 - 1.2 - Partly cloudy 10 - - - -
23/07:30am 10.7 NW 8 10 1009.7 - 1.2 - Partly cloudy 10 - - - -
23/07:00am 9.7 NW 8 10 1009.3 - 1.2 - Partly cloudy 10 - - - -
23/06:53am 9.7 NW 8 10 1009.2 - 1.2 - Partly cloudy 10 - - - -
23/06:31am 9.7 NW 7 11 1009.0 - 1.2 - Partly cloudy 10 - - - -
23/06:30am 9.8 WNW 7 12 1009.0 - 1.2 - Partly cloudy 10 - - - -
23/06:09am 9.8 WNW 8 12 1008.6 - 1.2 - Partly cloudy 10 - - - -
23/06:00am 9.7 WNW 7 12 1008.5 - 1.2 - Partly cloudy 10 - - - -
23/05:30am 9.8 WNW 6 8 1008.0 - 1.2 - Cloudy 10 - - - -
23/05:08am 10.3 WNW 8 12 1007.9 - 1.2 - Partly cloudy 10 - - - -
23/05:05am 10.3 WNW 8 12 1007.8 - 1.2 - Partly cloudy 10 - - - -
23/05:00am 10.2 WNW 8 12 1007.8 - 1.2 - Partly cloudy 10 - - - -
23/04:49am 10.4 WNW 10 13 1007.7 - 1.2 - Partly cloudy 10 - - - -
23/04:30am 10.3 WNW 7 9 1007.5 - 1.2 - Partly cloudy 10 - - - -
23/04:00am 10.4 NW 9 12 1007.1 - 1.2 - Partly cloudy 10 - - - -
23/03:56am 10.4 NW 9 12 1007.0 - 1.2 - Partly cloudy 10 - - - -
23/03:30am 10.6 WNW 8 11 1007.1 - 1.2 - Partly cloudy 10 - - - -
23/03:00am 10.9 NW 9 11 1007.1 - 1.2 - Cloudy 10 - - - -
23/02:34am 11.1 NW 9 12 1006.8 - 1.2 - Partly cloudy 10 - - - -
23/02:30am 11.1 NW 8 12 1006.8 - 1.2 - Partly cloudy 10 - - - -
23/02:17am 10.9 WNW 11 15 1006.8 - 1.2 - Partly cloudy 10 - - - -
23/02:00am 11.0 WNW 11 15 1006.6 - 1.2 - Partly cloudy 10 - - - -
23/01:30am 11.4 WNW 12 16 1006.6 - 1.2 - Partly cloudy 10 - - - -
23/01:00am 11.6 NW 9 12 1006.4 - 1.2 - Cloudy 6 - - - -
23/12:30am 11.8 NNW 9 11 1006.4 - 0.8 - Cloudy 10 - - - -
23/12:00am 12.6 NNW 9 12 1006.0 - 0.8 - Mostly cloudy 10 - - - -
 
Date/Time
EDT
Temp

°C
Wind Pressure Rain
since 9am
mm
Weather Cloud Vis
km
Sea
Height
m
Swell
Dir
 
Speed
knots
Gust
knots
hPa Trend Height
m
Period
s
Dir
22/11:42pm 13.0 NNW 8 10 1005.9 - 0.8 - Partly cloudy 10 - - - -
22/11:30pm 13.0 NNW 7 12 1005.8 - 0.8 - Cloudy 10 - - - -
22/11:00pm 12.7 NNW 6 11 1005.6 - 0.8 - Partly cloudy 10 - - - -
22/10:30pm 12.9 NNW 8 11 1005.3 - 0.8 - Cloudy 10 - - - -
22/10:00pm 13.3 NNW 9 13 1005.2 - 0.8 - Cloudy 10 - - - -
22/09:30pm 13.9 NNW 11 13 1004.5 - 0.8 - Partly cloudy 10 - - - -
22/09:00pm 14.2 N 11 15 1004.4 - 0.8 - Mostly cloudy 10 - - - -
22/08:44pm 14.4 NNW 8 11 1004.3 - 0.8 - Partly cloudy 10 - - - -
22/08:30pm 14.4 NW 9 13 1004.2 - 0.8 - Partly cloudy 4 - - - -
22/08:22pm 14.3 NW 8 10 1004.3 - 0.8 - Partly cloudy 5 - - - -
22/08:00pm 15.2 CALM 0 0 1003.7 - 0.8 - Partly cloudy 10 - - - -
22/07:30pm 15.7 NW 1 3 1003.6 - 0.8 - Cloudy 10 - - - -
22/07:00pm 15.9 NW 6 8 1003.8 - 0.8 - Cloudy 10 - - - -
22/06:30pm 16.6 NW 8 11 1003.8 - 0.6 - Cloudy 10 - - - -
22/06:00pm 17.3 NNW 9 13 1003.9 - 0.6 - Cloudy 10 - - - -
22/05:30pm 16.9 N 8 11 1003.9 - 0.6 - Partly cloudy 10 - - - -
22/05:00pm 16.0 N 8 12 1004.0 - 0.6 - Partly cloudy 10 - - - -
22/04:30pm 17.5 N 9 13 1004.1 - 0.6 - Cloudy 10 - - - -
22/04:00pm 16.7 N 14 18 1004.5 - 0.6 - Partly cloudy 10 - - - -
22/03:30pm 17.2 NNW 17 23 1005.0 - 0.6 - Partly cloudy 10 - - - -
22/03:00pm 17.4 N 14 22 1005.0 - 0.6 - Cloudy 10 - - - -
22/02:30pm 16.6 N 12 17 1005.2 - 0.6 - Cloudy 10 - - - -
22/02:00pm 17.0 N 12 17 1005.2 - 0.6 - Cloudy 10 - - - -
22/01:30pm 16.7 N 12 18 1005.3 - 0.6 - Partly cloudy 10 - - - -
22/01:00pm 17.6 N 13 19 1005.6 - 0.2 - Partly cloudy 10 - - - -
22/12:30pm 17.5 N 9 15 1005.9 - 0.2 - Cloudy 10 - - - -
22/12:00pm 16.8 N 10 16 1006.3 - 0.2 - Cloudy 10 - - - -
22/11:30am 14.0 NNE 9 13 1006.8 - 0.2 - Cloudy 10 - - - -
22/11:00am 12.3 N 7 9 1007.2 - 0.2 - Partly cloudy 10 - - - -
22/10:30am 11.4 N 9 13 1007.5 - 0.2 - Partly cloudy 10 - - - -
22/10:00am 11.3 N 9 13 1007.2 - 0.0 - Partly cloudy 10 - - - -
22/09:30am 10.8 N 8 13 1007.6 - 0.0 - Partly cloudy 10 - - - -
22/09:00am 10.6 N 9 13 1008.0 - 2.2 Recent precip. Cloudy 10 - - - -
22/08:30am 9.7 NNE 10 16 1007.6 - 2.0 - Partly cloudy 10 - - - -
22/08:00am 9.3 NNE 9 13 1007.9 - 2.0 - Partly cloudy 10 - - - -
22/07:30am 9.4 N 11 16 1008.3 - 1.6 - Partly cloudy 10 - - - -
22/07:00am 9.5 N 8 13 1008.7 - 0.8 - Partly cloudy 8 - - - -
22/06:30am 10.8 N 14 22 1008.5 - 0.0 - Partly cloudy 10 - - - -
22/06:17am 11.4 N 15 25 1008.4 - 0.0 - Partly cloudy 10 - - - -
22/06:00am 11.4 NNW 16 24 1008.3 - 0.0 - Cloudy 10 - - - -
22/05:30am 11.7 NNW 14 21 1008.2 - 0.0 - Partly cloudy 10 - - - -
22/05:00am 9.4 N 7 9 1008.1 - 0.0 - Partly cloudy 10 - - - -
22/04:30am 8.8 NNE 6 9 1007.2 - 0.0 - Partly cloudy 10 - - - -
22/04:00am 8.2 N 6 8 1007.2 - 0.0 - - 10 - - - -
22/03:30am 8.9 N 5 7 1007.3 - 0.0 - Partly cloudy 10 - - - -
22/03:00am 9.5 N 7 10 1007.1 - 0.0 - Mostly cloudy 10 - - - -
22/02:30am 9.3 N 6 9 1007.3 - 0.0 - Partly cloudy 10 - - - -
22/02:00am 9.5 NNE 6 8 1007.7 - 0.0 - Partly cloudy 10 - - - -
22/01:30am 9.5 N 7 10 1008.3 - 0.0 - Cloudy 10 - - - -
22/01:00am 9.0 NNE 7 13 1008.5 - 0.0 - Cloudy 10 - - - -
22/12:30am 8.2 NNE 7 10 1009.0 - 0.0 - Cloudy 10 - - - -
22/12:00am 7.6 NNE 8 11 1009.5 - 0.0 - Partly cloudy 10 - - - -
 
Date/Time
EDT
Temp

°C
Wind Pressure Rain
since 9am
mm
Weather Cloud Vis
km
Sea
Height
m
Swell
Dir
 
Speed
knots
Gust
knots
hPa Trend Height
m
Period
s
Dir
21/11:30pm 7.7 N 7 10 1010.1 - 0.0 - - 10 - - - -
21/11:00pm 7.8 NNE 10 15 1009.6 - 0.0 - Partly cloudy 10 - - - -
21/10:30pm 7.7 NNE 7 9 1011.0 - 0.0 - Partly cloudy 10 - - - -
21/10:00pm 8.1 N 8 10 1011.2 - 0.0 - - 10 - - - -
21/09:30pm 9.0 N 8 11 1011.0 - 0.0 - Partly cloudy 10 - - - -
21/09:00pm 9.6 NNW 12 16 1010.9 - 0.0 - - 10 - - - -
21/08:30pm 9.4 NNW 10 15 1010.6 - 0.0 - - 10 - - - -
21/08:00pm 10.0 NNW 11 13 1010.5 - 0.0 - - 10 - - - -
21/07:30pm 10.8 NNW 9 13 1010.2 - 0.0 - - 10 - - - -
21/07:00pm 11.3 NNW 10 14 1010.0 - 0.0 - - 10 - - - -
21/06:30pm 12.0 NNW 9 13 1009.7 - 0.0 - Partly cloudy 10 - - - -
21/06:00pm 12.2 NW 10 14 1009.6 - 0.0 - - 10 - - - -
21/05:30pm 12.5 NW 10 14 1009.6 - 0.0 - Partly cloudy 10 - - - -
21/05:00pm 12.4 NNW 9 13 1009.4 - 0.0 - Partly cloudy 10 - - - -
21/04:30pm 12.8 WNW 9 15 1009.5 - 0.0 - Partly cloudy 10 - - - -
21/04:00pm 12.7 WNW 10 14 1009.5 - 0.0 - Partly cloudy 10 - - - -
21/03:30pm 13.1 NW 9 15 1009.4 - 0.0 - Partly cloudy 10 - - - -
21/03:00pm 12.3 NW 6 8 1009.3 - 0.0 - Mostly clear 10 - - - -
21/02:30pm 13.2 W 10 15 1009.4 - 0.0 - - 10 - - - -
21/02:00pm 13.1 WNW 10 15 1009.1 - 0.0 - - 10 - - - -
21/01:30pm 12.8 WSW 7 9 1008.9 - 0.0 - - 10 - - - -
21/01:00pm 12.9 W 10 15 1008.8 - 0.0 - - 10 - - - -
21/12:30pm 13.3 W 9 12 1008.5 - 0.0 - Partly cloudy 10 - - - -
21/12:00pm 12.1 WSW 11 15 1008.4 - 0.0 - Cloudy 10 - - - -
21/11:30am 12.2 WSW 10 15 1008.1 - 0.0 - Partly cloudy 10 - - - -
21/11:00am 10.4 WSW 12 15 1007.9 - 0.0 - Cloudy 10 - - - -
21/10:30am 10.4 WSW 13 19 1007.8 - 0.0 - Partly cloudy 10 - - - -
21/10:00am 9.7 SW 15 20 1007.7 - 0.0 - Partly cloudy 10 - - - -
21/09:30am 10.9 SW 11 14 1007.2 - 0.0 - Partly cloudy 10 - - - -
21/09:00am 10.1 SW 11 14 1006.7 - 1.8 - Partly cloudy 10 - - - -
21/08:30am 10.0 SW 11 15 1006.3 - 1.8 - Partly cloudy 10 - - - -
21/08:00am 9.5 SW 10 13 1005.9 - 1.8 - Cloudy 10 - - - -
21/07:33am 9.3 SW 9 13 1005.3 - 1.8 - Partly cloudy 10 - - - -
21/07:30am 9.1 SW 9 13 1005.2 - 1.8 - Partly cloudy 10 - - - -
21/07:00am 9.4 WSW 12 18 1004.9 - 1.8 - Partly cloudy 10 - - - -
21/06:58am 9.5 WSW 11 17 1004.9 - 1.8 - Partly cloudy 10 - - - -
21/06:40am 9.6 SW 11 16 1004.3 - 1.8 - Partly cloudy 10 - - - -
21/06:30am 9.6 SW 12 16 1004.1 - 1.8 - Partly cloudy 10 - - - -
21/06:00am 9.4 SW 9 12 1003.6 - 1.8 - Cloudy 10 - - - -
21/05:40am 9.6 SW 10 15 1003.2 - 1.8 - Partly cloudy 10 - - - -
21/05:30am 9.6 SW 9 12 1003.0 - 1.8 - Partly cloudy 10 - - - -
21/05:00am 9.9 SW 11 15 1002.7 - 1.8 - Partly cloudy 10 - - - -
21/04:30am 10.0 SW 10 13 1002.4 - 1.8 - Partly cloudy 10 - - - -
21/04:00am 10.5 SW 12 17 1002.1 - 1.8 - Partly cloudy 10 - - - -
21/03:57am 10.6 SW 12 17 1002.0 - 1.8 - Partly cloudy 10 - - - -
21/03:54am 10.7 SW 11 17 1002.0 - 1.8 - Partly cloudy 10 - - - -
21/03:30am 11.2 WSW 9 12 1001.8 - 1.8 - Partly cloudy 10 - - - -
21/03:00am 11.5 W 9 12 1001.7 - 1.8 - Cloudy 10 - - - -
21/02:30am 11.6 NW 10 12 1001.7 - 1.8 - Cloudy 10 - - - -
21/02:09am 11.6 NW 9 13 1001.5 - 1.8 - Partly cloudy 9 - - - -
21/02:00am 11.6 NW 10 13 1001.7 - 1.8 - Partly cloudy 10 - - - -
21/01:31am 11.8 NW 14 19 1001.8 - 1.8 - Partly cloudy 10 - - - -
21/01:30am 11.8 NW 14 19 1001.8 - 1.8 - Partly cloudy 10 - - - -
21/01:00am 12.2 NW 14 20 1001.6 - 1.8 - Partly cloudy 6 - - - -
21/12:52am 12.5 NW 14 18 1001.6 - 1.8 - Partly cloudy 7 - - - -
21/12:30am 12.4 NW 12 15 1001.4 - 1.8 - Cloudy 9 - - - -
21/12:00am 12.4 NNW 12 15 1001.2 - 1.8 - Cloudy 6 - - - -
 
Date/Time
EDT
Temp

°C
Wind Pressure Rain
since 9am
mm
Weather Cloud Vis
km
Sea
Height
m
Swell
Dir
 
Speed
knots
Gust
knots
hPa Trend Height
m
Period
s
Dir
20/11:30pm 12.5 NNW 14 19 1001.3 - 1.8 - Cloudy 7 - - - -
20/11:00pm 11.8 NNW 14 20 1001.3 - 1.8 - Partly cloudy 7 - - - -
20/10:30pm 12.1 NNW 15 19 1001.4 - 1.8 - Partly cloudy 9 - - - -
20/10:00pm 12.4 NNW 15 21 1001.8 - 1.8 - Partly cloudy 9 - - - -
20/09:30pm 12.9 NNW 14 19 1001.4 - 1.8 - Partly cloudy 9 - - - -
20/09:00pm 13.1 NNW 16 22 1001.2 - 1.8 Recent precip. Cloudy 10 - - - -

Other Formats:

Comma delimited format used in spreadsheet applications
http://www.bom.gov.au/fwo/IDT60701/IDT60701.94956.axf

JavaScript Object Notation format (JSON) in row-major order
http://www.bom.gov.au/fwo/IDT60701/IDT60701.94956.json